Time;durP1;ratioP1;P1;durP2;ratioP2;P2;SDS_P1;SDS_P2;PMS_P1;PMS_P2;Temp;Humidity;BMP_temperature;BMP_pressure;BME280_temperature;BME280_humidity;BME280_pressure;Samples;Min_cycle;Max_cycle;Signal;HPM_P1;HPM_P2
2023/04/05 00:00:38;;;;;;;5.65;2.88;;;;;;;;;;4972823;28;20054;-66
2023/04/05 00:03:03;;;;;;;6.68;2.70;;;;;;;;;;4970534;28;20092;-67
2023/04/05 00:05:29;;;;;;;7.00;2.65;;;;;;;;;;4972639;28;20027;-68
2023/04/05 00:07:59;;;;;;;4.80;2.70;;;;;;;;;;4972535;28;20027;-67
2023/04/05 00:10:25;;;;;;;4.60;2.80;;;;;;;;;;4972308;28;20026;-67
2023/04/05 00:12:51;;;;;;;4.97;2.85;;;;;;;;;;4972448;28;20042;-67
2023/04/05 00:15:17;;;;;;;4.50;2.60;;;;;;;;;;4972459;28;20041;-68
2023/04/05 00:17:43;;;;;;;5.32;2.50;;;;;;;;;;4972547;28;20031;-68
2023/04/05 00:20:10;;;;;;;4.75;2.45;;;;;;;;;;4972425;28;20045;-69
2023/04/05 00:22:35;;;;;;;5.03;2.50;;;;;;;;;;4972497;28;20560;-68
2023/04/05 00:25:02;;;;;;;4.28;2.50;;;;;;;;;;4972154;28;20577;-67
2023/04/05 00:27:27;;;;;;;6.45;2.42;;;;;;;;;;4972023;28;20514;-68
2023/04/05 00:29:53;;;;;;;4.43;2.40;;;;;;;;;;4971871;28;20110;-66
2023/04/05 00:32:18;;;;;;;3.47;2.10;;;;;;;;;;4972112;28;20031;-68
2023/04/05 00:34:43;;;;;;;3.97;2.25;;;;;;;;;;4972073;28;20491;-66
2023/04/05 00:37:10;;;;;;;4.60;2.30;;;;;;;;;;4972038;28;20074;-68
2023/04/05 00:39:35;;;;;;;6.00;2.65;;;;;;;;;;4971768;28;20023;-68
2023/04/05 00:42:03;;;;;;;5.55;2.20;;;;;;;;;;4970747;28;20038;-66
2023/04/05 00:44:33;;;;;;;4.25;3.00;;;;;;;;;;4971768;28;20029;-66
2023/04/05 00:46:59;;;;;;;3.35;2.30;;;;;;;;;;4971895;28;20062;-66
2023/04/05 00:49:25;;;;;;;4.13;2.22;;;;;;;;;;4971587;28;20063;-67
2023/04/05 00:51:51;;;;;;;5.70;2.63;;;;;;;;;;4971783;28;20069;-68
2023/04/05 00:54:17;;;;;;;5.15;2.42;;;;;;;;;;4971629;28;20035;-67
2023/04/05 00:56:42;;;;;;;3.83;2.40;;;;;;;;;;4971939;28;20106;-68
2023/04/05 00:59:08;;;;;;;4.88;2.17;;;;;;;;;;4971632;28;20184;-65
2023/04/05 01:01:36;;;;;;;5.10;2.33;;;;;;;;;;4971630;28;20027;-69
2023/04/05 01:04:04;;;;;;;3.75;2.33;;;;;;;;;;4971912;28;20067;-70
2023/04/05 01:06:41;;;;;;;4.95;2.50;;;;;;;;;;4973119;28;20073;-68
2023/04/05 01:09:31;;;;;;;7.55;2.20;;;;;;;;;;4971748;28;20384;-68
2023/04/05 01:12:02;;;;;;;4.20;2.60;;;;;;;;;;4971661;28;20034;-68
2023/04/05 01:14:27;;;;;;;4.50;2.60;;;;;;;;;;4971177;28;20470;-69
2023/04/05 01:16:57;;;;;;;4.35;2.28;;;;;;;;;;4971620;28;20031;-68
2023/04/05 01:19:27;;;;;;;4.10;2.33;;;;;;;;;;4971068;28;20019;-68
2023/04/05 01:22:25;;;;;;;6.30;2.17;;;;;;;;;;4971081;28;20598;-69
2023/04/05 01:25:09;;;;;;;3.30;2.00;;;;;;;;;;4971118;28;20475;-68
2023/04/05 01:27:59;;;;;;;3.95;2.67;;;;;;;;;;4971500;28;20070;-68
2023/04/05 01:30:37;;;;;;;3.38;2.20;;;;;;;;;;4971025;28;20119;-68
2023/04/05 01:33:24;;;;;;;4.53;2.33;;;;;;;;;;4971277;28;20557;-67
2023/04/05 01:36:07;;;;;;;4.82;2.60;;;;;;;;;;4970965;28;20041;-67
2023/04/05 01:38:37;;;;;;;4.50;2.60;;;;;;;;;;4970877;28;20023;-67
2023/04/05 01:41:02;;;;;;;5.93;2.70;;;;;;;;;;4970940;28;20491;-67
2023/04/05 01:43:28;;;;;;;5.97;2.53;;;;;;;;;;4971395;28;20031;-67
2023/04/05 01:45:53;;;;;;;4.07;2.38;;;;;;;;;;4971130;28;20074;-67
2023/04/05 01:48:19;;;;;;;7.45;2.60;;;;;;;;;;4971073;28;20038;-67
2023/04/05 01:50:44;;;;;;;4.55;2.22;;;;;;;;;;4970962;28;20065;-66
2023/04/05 01:53:10;;;;;;;6.15;2.42;;;;;;;;;;4971088;28;20043;-67
2023/04/05 01:55:35;;;;;;;4.25;2.70;;;;;;;;;;4970773;28;20053;-66
2023/04/05 01:58:00;;;;;;;5.40;2.20;;;;;;;;;;4970842;28;20037;-67
2023/04/05 02:00:26;;;;;;;4.45;2.50;;;;;;;;;;4970825;28;20030;-66
2023/04/05 02:02:52;;;;;;;7.88;2.80;;;;;;;;;;4971081;28;20023;-67
2023/04/05 02:05:17;;;;;;;5.95;2.50;;;;;;;;;;4970589;28;20062;-66
2023/04/05 02:07:43;;;;;;;5.18;2.47;;;;;;;;;;4970887;28;20598;-66
2023/04/05 02:10:08;;;;;;;5.03;2.60;;;;;;;;;;4970623;28;20027;-66
2023/04/05 02:12:33;;;;;;;3.40;2.50;;;;;;;;;;4970821;28;20026;-67
2023/04/05 02:14:59;;;;;;;3.67;2.60;;;;;;;;;;4970623;28;20431;-68
2023/04/05 02:17:38;;;;;;;5.50;2.40;;;;;;;;;;4970933;28;20031;-67
2023/04/05 02:20:09;;;;;;;3.95;2.63;;;;;;;;;;4970566;28;20114;-67
2023/04/05 02:22:35;;;;;;;;;;;;;;;;;;4971210;28;20039;-67
2023/04/05 02:25:02;;;;;;;3.97;2.70;;;;;;;;;;4971662;28;19914;-67
2023/04/05 02:27:28;;;;;;;4.97;2.80;;;;;;;;;;4974423;28;20450;-68
2023/04/05 02:29:54;;;;;;;5.63;2.97;;;;;;;;;;4974207;28;20471;-68
2023/04/05 02:32:20;;;;;;;6.68;2.75;;;;;;;;;;4974170;28;20406;-66
2023/04/05 02:34:45;;;;;;;5.35;2.75;;;;;;;;;;4974452;28;20030;-66
2023/04/05 02:37:11;;;;;;;4.88;2.85;;;;;;;;;;4974090;28;20038;-67
2023/04/05 02:39:36;;;;;;;5.28;2.88;;;;;;;;;;4974209;28;20031;-68
2023/04/05 02:42:01;;;;;;;4.35;2.67;;;;;;;;;;4974216;28;20120;-67
2023/04/05 02:44:28;;;;;;;6.68;2.78;;;;;;;;;;4974257;28;20025;-66
2023/04/05 02:46:54;;;;;;;5.75;3.03;;;;;;;;;;4974043;28;20062;-68
2023/04/05 02:49:20;;;;;;;3.92;2.67;;;;;;;;;;4973906;28;20069;-66
2023/04/05 02:51:45;;;;;;;7.45;3.03;;;;;;;;;;4973651;28;20054;-67
2023/04/05 02:54:10;;;;;;;7.82;2.85;;;;;;;;;;4974014;28;20026;-68
2023/04/05 02:56:36;;;;;;;5.85;2.65;;;;;;;;;;4973924;28;20031;-67
2023/04/05 02:59:02;;;;;;;6.20;2.72;;;;;;;;;;4973948;28;20111;-68
2023/04/05 03:01:28;;;;;;;5.38;2.55;;;;;;;;;;4973680;28;20483;-69
2023/04/05 03:03:53;;;;;;;5.47;2.85;;;;;;;;;;4973670;28;20122;-68
2023/04/05 03:06:19;;;;;;;4.82;2.92;;;;;;;;;;4973486;28;20112;-68
2023/04/05 03:08:47;;;;;;;4.15;2.60;;;;;;;;;;4973522;28;20023;-66
2023/04/05 03:11:13;;;;;;;5.25;2.60;;;;;;;;;;4973476;28;20034;-68
2023/04/05 03:13:40;;;;;;;5.63;2.65;;;;;;;;;;4973975;28;20062;-67
2023/04/05 03:16:05;;;;;;;4.00;2.80;;;;;;;;;;4973613;28;20023;-67
2023/04/05 03:18:31;;;;;;;4.68;2.75;;;;;;;;;;4973684;28;20118;-68
2023/04/05 03:20:57;;;;;;;6.82;2.97;;;;;;;;;;4973354;28;20023;-68
2023/04/05 03:23:27;;;;;;;7.28;2.85;;;;;;;;;;4973218;28;20570;-68
2023/04/05 03:25:54;;;;;;;5.68;2.70;;;;;;;;;;4973145;28;20531;-67
2023/04/05 03:28:20;;;;;;;11.00;2.92;;;;;;;;;;4973474;28;20042;-66
2023/04/05 03:30:45;;;;;;;6.32;2.90;;;;;;;;;;4973319;28;20026;-67
2023/04/05 03:33:11;;;;;;;6.65;2.72;;;;;;;;;;4973355;28;20037;-68
2023/04/05 03:35:36;;;;;;;5.88;2.80;;;;;;;;;;4973072;28;20061;-68
2023/04/05 03:38:02;;;;;;;4.93;3.00;;;;;;;;;;4971982;28;20027;-69
2023/04/05 03:40:27;;;;;;;5.00;3.28;;;;;;;;;;4972948;28;20441;-68
2023/04/05 03:42:52;;;;;;;6.95;3.20;;;;;;;;;;4972891;28;20046;-68
2023/04/05 03:45:18;;;;;;;6.60;3.28;;;;;;;;;;4973190;28;20053;-68
2023/04/05 03:47:43;;;;;;;4.50;3.00;;;;;;;;;;4971742;28;20375;-68
2023/04/05 03:50:09;;;;;;;6.38;3.15;;;;;;;;;;4972863;28;20031;-68
2023/04/05 03:52:35;;;;;;;5.40;3.17;;;;;;;;;;4972804;28;20097;-68
2023/04/05 03:55:00;;;;;;;6.72;2.83;;;;;;;;;;4973154;28;20050;-68
2023/04/05 03:57:27;;;;;;;4.72;2.83;;;;;;;;;;4972813;28;20027;-68
2023/04/05 03:59:53;;;;;;;4.82;2.90;;;;;;;;;;4972680;28;20038;-68
2023/04/05 04:02:18;;;;;;;8.70;3.00;;;;;;;;;;4972611;28;20023;-67
2023/04/05 04:04:45;;;;;;;5.22;2.95;;;;;;;;;;4972782;28;20450;-67
2023/04/05 04:07:11;;;;;;;10.32;3.60;;;;;;;;;;4972403;28;20105;-67
2023/04/05 04:09:37;;;;;;;6.25;3.08;;;;;;;;;;4972758;28;20118;-67
2023/04/05 04:12:02;;;;;;;8.68;3.08;;;;;;;;;;4972473;28;20031;-68
2023/04/05 04:14:28;;;;;;;4.65;2.90;;;;;;;;;;4972619;28;20109;-67
2023/04/05 04:16:53;;;;;;;6.07;3.22;;;;;;;;;;4972387;28;20038;-68
2023/04/05 04:19:18;;;;;;;6.47;3.03;;;;;;;;;;4972287;28;20246;-68
2023/04/05 04:21:51;;;;;;;5.97;3.35;;;;;;;;;;4972130;28;20031;-68
2023/04/05 04:24:19;;;;;;;6.85;3.40;;;;;;;;;;4972582;28;20034;-68
2023/04/05 04:26:46;;;;;;;5.88;3.17;;;;;;;;;;4972240;28;20046;-68
2023/04/05 04:29:12;;;;;;;6.53;3.10;;;;;;;;;;4972211;28;20081;-66
2023/04/05 04:31:38;;;;;;;6.20;3.58;;;;;;;;;;4971931;28;20027;-68
2023/04/05 04:34:04;;;;;;;6.15;3.20;;;;;;;;;;4971946;28;20074;-68
2023/04/05 04:36:38;;;;;;;4.90;3.20;;;;;;;;;;4971773;28;20105;-67
2023/04/05 04:39:04;;;;;;;5.68;3.17;;;;;;;;;;4972145;28;20022;-69
2023/04/05 04:41:32;;;;;;;4.65;3.33;;;;;;;;;;4972036;28;20023;-68
2023/04/05 04:44:01;;;;;;;5.07;3.20;;;;;;;;;;4972303;28;20414;-68
2023/04/05 04:46:29;;;;;;;4.78;3.20;;;;;;;;;;4971817;28;20041;-68
2023/04/05 04:48:57;;;;;;;5.13;3.28;;;;;;;;;;4971461;28;20376;-68
2023/04/05 04:51:22;;;;;;;7.25;3.30;;;;;;;;;;4971382;28;20030;-68
2023/04/05 04:53:48;;;;;;;4.82;3.30;;;;;;;;;;4971698;28;20450;-68
2023/04/05 04:56:13;;;;;;;9.43;3.30;;;;;;;;;;4972112;28;20066;-68
2023/04/05 04:58:39;;;;;;;6.50;3.40;;;;;;;;;;4971971;28;20031;-68
2023/04/05 05:01:10;;;;;;;8.05;3.75;;;;;;;;;;4972000;28;20105;-68
2023/04/05 05:03:37;;;;;;;7.80;3.60;;;;;;;;;;4971597;28;20495;-68
2023/04/05 05:06:03;;;;;;;5.65;3.58;;;;;;;;;;4971801;28;20058;-68
2023/04/05 05:08:29;;;;;;;10.63;3.95;;;;;;;;;;4971758;28;20101;-69
2023/04/05 05:10:55;;;;;;;7.28;3.55;;;;;;;;;;4971246;28;20039;-68
2023/04/05 05:13:20;;;;;;;4.95;3.75;;;;;;;;;;4971273;28;20531;-67
2023/04/05 05:15:47;;;;;;;9.57;3.60;;;;;;;;;;4971559;28;20026;-68
2023/04/05 05:18:12;;;;;;;5.63;3.85;;;;;;;;;;4971395;28;20101;-68
2023/04/05 05:20:37;;;;;;;8.00;3.50;;;;;;;;;;4971399;28;20105;-68
2023/04/05 05:23:04;;;;;;;5.30;3.30;;;;;;;;;;4971151;28;20018;-68
2023/04/05 05:25:30;;;;;;;8.32;3.35;;;;;;;;;;4971397;28;20045;-67
2023/04/05 05:27:56;;;;;;;7.38;3.85;;;;;;;;;;4970847;28;20444;-66
2023/04/05 05:30:21;;;;;;;10.85;4.40;;;;;;;;;;4971113;28;20518;-67
2023/04/05 05:32:47;;;;;;;5.68;3.92;;;;;;;;;;4971055;28;20031;-66
2023/04/05 05:35:13;;;;;;;7.47;3.75;;;;;;;;;;4971376;28;20030;-68
2023/04/05 05:37:38;;;;;;;5.15;3.33;;;;;;;;;;4970990;28;20029;-66
2023/04/05 05:40:04;;;;;;;5.68;3.60;;;;;;;;;;4971136;28;20086;-66
2023/04/05 05:42:31;;;;;;;6.72;3.47;;;;;;;;;;4971050;28;20038;-68
2023/04/05 05:44:59;;;;;;;9.23;3.80;;;;;;;;;;4971112;28;20058;-69
2023/04/05 05:47:24;;;;;;;7.03;3.60;;;;;;;;;;4970982;28;20027;-68
2023/04/05 05:49:50;;;;;;;8.38;3.65;;;;;;;;;;4971110;28;20507;-67
2023/04/05 05:52:15;;;;;;;7.82;3.85;;;;;;;;;;4970969;28;20138;-67
2023/04/05 05:54:40;;;;;;;7.63;3.78;;;;;;;;;;4971275;28;20085;-66
2023/04/05 05:57:06;;;;;;;8.00;4.15;;;;;;;;;;4971515;28;20431;-68
2023/04/05 05:59:31;;;;;;;8.13;4.60;;;;;;;;;;4971103;28;20019;-70
2023/04/05 06:01:56;;;;;;;7.25;3.90;;;;;;;;;;4974878;28;20626;-67
2023/04/05 06:04:22;;;;;;;9.48;4.40;;;;;;;;;;4974672;28;20043;-67
2023/04/05 06:06:47;;;;;;;9.40;4.50;;;;;;;;;;4974923;28;20019;-66
2023/04/05 06:09:17;;;;;;;9.20;4.07;;;;;;;;;;4974610;28;20607;-66
2023/04/05 06:11:42;;;;;;;7.07;4.10;;;;;;;;;;4974685;28;20085;-66
2023/04/05 06:14:07;;;;;;;9.93;4.22;;;;;;;;;;4974773;28;20042;-66
2023/04/05 06:16:34;;;;;;;8.68;4.38;;;;;;;;;;4974950;28;20033;-67
2023/04/05 06:19:00;;;;;;;8.15;4.10;;;;;;;;;;4974592;28;20019;-68
2023/04/05 06:21:26;;;;;;;7.70;4.10;;;;;;;;;;4974349;28;20134;-68
2023/04/05 06:23:51;;;;;;;7.55;4.28;;;;;;;;;;4974289;28;20027;-68
2023/04/05 06:26:25;;;;;;;9.40;4.00;;;;;;;;;;4974657;28;20031;-68
2023/04/05 06:28:52;;;;;;;6.05;3.97;;;;;;;;;;4974249;28;20023;-68
2023/04/05 06:31:19;;;;;;;7.28;3.50;;;;;;;;;;4974246;28;20046;-68
2023/04/05 06:33:45;;;;;;;9.90;4.20;;;;;;;;;;4974217;28;20027;-68
2023/04/05 06:36:10;;;;;;;6.70;3.47;;;;;;;;;;4974158;28;20022;-65
2023/04/05 06:38:35;;;;;;;8.60;3.33;;;;;;;;;;4974062;28;20019;-67
2023/04/05 06:41:01;;;;;;;7.93;3.80;;;;;;;;;;4973982;28;20031;-67
2023/04/05 06:43:27;;;;;;;9.43;3.45;;;;;;;;;;4974123;28;20026;-68
2023/04/05 06:45:55;;;;;;;9.35;3.40;;;;;;;;;;4974374;28;20054;-68
2023/04/05 06:48:21;;;;;;;7.68;3.40;;;;;;;;;;4974034;28;20027;-68
2023/04/05 06:50:46;;;;;;;9.57;3.67;;;;;;;;;;4974005;28;20110;-68
2023/04/05 06:53:14;;;;;;;6.28;3.60;;;;;;;;;;4973792;28;20031;-68
2023/04/05 06:55:39;;;;;;;7.70;3.80;;;;;;;;;;4973901;28;20023;-66
2023/04/05 06:58:05;;;;;;;7.05;4.00;;;;;;;;;;4973955;28;20034;-66
2023/04/05 07:00:30;;;;;;;8.10;3.67;;;;;;;;;;4973959;28;20505;-68
2023/04/05 07:02:55;;;;;;;6.47;3.53;;;;;;;;;;4973929;28;20613;-66
2023/04/05 07:05:21;;;;;;;8.77;3.70;;;;;;;;;;4973584;28;20054;-69
2023/04/05 07:07:47;;;;;;;8.93;3.80;;;;;;;;;;4973748;28;20026;-67
2023/04/05 07:10:13;;;;;;;7.25;3.90;;;;;;;;;;4973448;28;20446;-67
2023/04/05 07:12:39;;;;;;;5.95;3.60;;;;;;;;;;4973228;28;20505;-67
2023/04/05 07:15:05;;;;;;;9.45;4.00;;;;;;;;;;4973347;28;20027;-68
2023/04/05 07:17:30;;;;;;;4.75;3.50;;;;;;;;;;4973733;28;20524;-66
2023/04/05 07:19:56;;;;;;;9.05;3.50;;;;;;;;;;4973550;28;20027;-69
2023/04/05 07:22:21;;;;;;;5.60;3.78;;;;;;;;;;4973349;28;20035;-67
2023/04/05 07:24:47;;;;;;;7.10;3.40;;;;;;;;;;4973252;28;20026;-69
2023/04/05 07:27:13;;;;;;;12.50;3.65;;;;;;;;;;4973424;28;20422;-68
2023/04/05 07:29:41;;;;;;;6.30;3.75;;;;;;;;;;4973127;28;20029;-67
2023/04/05 07:32:07;;;;;;;9.02;3.38;;;;;;;;;;4972863;28;20490;-68
2023/04/05 07:34:33;;;;;;;8.65;3.75;;;;;;;;;;4972963;28;20047;-68
2023/04/05 07:36:59;;;;;;;7.45;3.90;;;;;;;;;;4973217;28;20029;-68
2023/04/05 07:39:24;;;;;;;6.82;3.53;;;;;;;;;;4973112;28;20031;-67
2023/04/05 07:41:50;;;;;;;10.60;3.70;;;;;;;;;;4973121;28;20466;-67
2023/04/05 07:44:15;;;;;;;8.88;4.13;;;;;;;;;;4973028;28;20046;-67
2023/04/05 07:46:43;;;;;;;10.52;3.78;;;;;;;;;;4973072;28;20077;-68
2023/04/05 07:49:09;;;;;;;6.22;3.42;;;;;;;;;;4972762;28;20023;-68
2023/04/05 07:51:37;;;;;;;8.90;3.78;;;;;;;;;;4972737;28;20042;-67
2023/04/05 07:54:04;;;;;;;7.82;4.07;;;;;;;;;;4972785;28;20034;-67
2023/04/05 07:56:30;;;;;;;10.20;4.18;;;;;;;;;;4973113;28;20015;-67
2023/04/05 07:58:56;;;;;;;9.57;3.47;;;;;;;;;;4972753;28;20031;-67
2023/04/05 08:01:26;;;;;;;10.00;3.97;;;;;;;;;;4972842;28;20037;-68
2023/04/05 08:03:56;;;;;;;8.52;3.85;;;;;;;;;;4972447;28;20146;-67
2023/04/05 08:06:23;;;;;;;6.32;3.83;;;;;;;;;;4972444;28;20066;-66
2023/04/05 08:08:49;;;;;;;6.95;3.67;;;;;;;;;;4972569;28;20034;-68
2023/04/05 08:11:14;;;;;;;8.00;3.40;;;;;;;;;;4972364;28;20031;-67
2023/04/05 08:13:40;;;;;;;9.07;3.63;;;;;;;;;;4971605;28;20122;-68
2023/04/05 08:16:09;;;;;;;5.82;3.30;;;;;;;;;;4972537;28;20479;-67
2023/04/05 08:18:35;;;;;;;6.00;3.45;;;;;;;;;;4972673;28;20049;-67
2023/04/05 08:21:01;;;;;;;5.25;3.10;;;;;;;;;;4971969;28;20434;-67
2023/04/05 08:23:26;;;;;;;5.40;3.30;;;;;;;;;;4971729;28;20499;-68
2023/04/05 08:25:52;;;;;;;7.45;3.50;;;;;;;;;;4972048;28;20038;-68
2023/04/05 08:28:18;;;;;;;7.32;3.42;;;;;;;;;;4972181;28;20033;-68
2023/04/05 08:30:44;;;;;;;6.05;3.42;;;;;;;;;;4972136;28;20083;-68
2023/04/05 08:33:10;;;;;;;8.70;3.58;;;;;;;;;;4972165;28;20150;-68
2023/04/05 08:35:36;;;;;;;7.00;3.35;;;;;;;;;;4971856;28;20054;-68
2023/04/05 08:38:02;;;;;;;6.20;3.13;;;;;;;;;;4971973;28;20479;-67
2023/04/05 08:40:42;;;;;;;7.03;3.33;;;;;;;;;;4971845;28;20094;-67
2023/04/05 08:43:09;;;;;;;7.03;3.30;;;;;;;;;;4971914;28;20042;-67
2023/04/05 08:45:45;;;;;;;6.75;3.15;;;;;;;;;;4971928;28;20294;-67
2023/04/05 08:48:10;;;;;;;9.60;3.20;;;;;;;;;;4971945;28;20038;-67
2023/04/05 08:50:36;;;;;;;6.40;3.10;;;;;;;;;;4971893;28;20030;-68
2023/04/05 08:53:01;;;;;;;6.18;2.90;;;;;;;;;;4971653;28;20503;-67
2023/04/05 08:55:27;;;;;;;5.53;2.97;;;;;;;;;;4971738;28;20029;-68
2023/04/05 08:57:57;;;;;;;8.20;3.10;;;;;;;;;;4971874;28;20039;-68
2023/04/05 09:00:23;;;;;;;5.28;3.20;;;;;;;;;;4971630;28;20027;-65
2023/04/05 09:02:54;;;;;;;6.05;3.10;;;;;;;;;;4971691;28;20073;-67
2023/04/05 09:05:22;;;;;;;7.28;3.20;;;;;;;;;;4971635;28;20051;-67
2023/04/05 09:07:49;;;;;;;11.00;3.05;;;;;;;;;;4971844;28;20066;-67
2023/04/05 09:10:18;;;;;;;5.22;2.83;;;;;;;;;;4971827;28;20054;-68
2023/04/05 09:12:44;;;;;;;4.15;2.70;;;;;;;;;;4978292;28;20070;-69
2023/04/05 09:15:10;;;;;;;6.10;2.90;;;;;;;;;;4978574;28;20470;-68
2023/04/05 09:17:38;;;;;;;6.60;3.25;;;;;;;;;;4973087;28;20030;-68
2023/04/05 09:20:04;;;;;;;6.90;3.20;;;;;;;;;;4971826;28;20038;-67
2023/04/05 09:22:29;;;;;;;4.75;2.78;;;;;;;;;;4971737;28;20039;-68
2023/04/05 09:24:55;;;;;;;6.78;2.70;;;;;;;;;;4971856;28;20516;-67
2023/04/05 09:27:20;;;;;;;4.95;2.63;;;;;;;;;;4971503;28;20030;-68
2023/04/05 09:29:47;;;;;;;5.13;2.53;;;;;;;;;;4971182;28;20027;-68
2023/04/05 09:32:14;;;;;;;5.22;2.97;;;;;;;;;;4971109;28;20129;-70
2023/04/05 09:34:41;;;;;;;4.53;2.70;;;;;;;;;;4971113;28;20034;-68
2023/04/05 09:37:15;;;;;;;4.80;2.58;;;;;;;;;;4971118;28;20027;-67
2023/04/05 09:39:42;;;;;;;5.00;2.80;;;;;;;;;;4971253;28;20297;-67
2023/04/05 09:42:14;;;;;;;5.25;2.50;;;;;;;;;;4971028;28;20033;-67
2023/04/05 09:44:55;;;;;;;6.75;2.80;;;;;;;;;;4971229;28;20023;-66
2023/04/05 09:47:26;;;;;;;5.65;2.70;;;;;;;;;;4971245;28;20526;-66
2023/04/05 09:49:51;;;;;;;4.07;2.53;;;;;;;;;;4971036;28;20399;-66
2023/04/05 09:52:19;;;;;;;5.05;2.50;;;;;;;;;;4970716;28;20042;-67
2023/04/05 09:54:44;;;;;;;4.10;2.22;;;;;;;;;;4971268;28;20038;-67
2023/04/05 09:57:10;;;;;;;5.13;2.30;;;;;;;;;;4970956;28;20031;-67
2023/04/05 09:59:35;;;;;;;4.20;2.10;;;;;;;;;;4971168;28;20050;-68
2023/04/05 10:02:02;;;;;;;4.68;2.15;;;;;;;;;;4970873;28;20038;-67
2023/04/05 10:04:38;;;;;;;11.40;2.60;;;;;;;;;;4970806;28;20596;-67
2023/04/05 10:07:04;;;;;;;5.15;2.35;;;;;;;;;;4970687;28;20510;-67
2023/04/05 10:09:29;;;;;;;6.13;2.05;;;;;;;;;;4970866;28;20077;-67
2023/04/05 10:11:55;;;;;;;5.30;2.38;;;;;;;;;;4970521;28;20035;-67
2023/04/05 10:14:22;;;;;;;4.45;2.38;;;;;;;;;;4971018;28;20053;-67
2023/04/05 10:17:12;;;;;;;5.72;2.40;;;;;;;;;;4970822;28;20027;-67
2023/04/05 10:20:20;;;;;;;5.88;2.50;;;;;;;;;;4970917;28;20038;-68
2023/04/05 10:23:05;;;;;;;4.43;2.25;;;;;;;;;;4970396;28;20120;-68
2023/04/05 10:25:56;;;;;;;5.18;2.20;;;;;;;;;;4970658;28;20073;-68
2023/04/05 10:28:27;;;;;;;5.53;2.15;;;;;;;;;;4970870;28;20023;-68
2023/04/05 10:31:17;;;;;;;4.68;2.20;;;;;;;;;;4970330;28;20031;-68
2023/04/05 10:33:44;;;;;;;5.40;2.10;;;;;;;;;;4960331;28;20070;-68
2023/04/05 10:36:46;;;;;;;8.43;2.17;;;;;;;;;;4970488;28;20086;-67
2023/04/05 10:39:18;;;;;;;4.88;2.03;;;;;;;;;;4970774;28;20031;-68
2023/04/05 10:41:51;;;;;;;5.50;2.17;;;;;;;;;;4969329;28;20487;-67
2023/04/05 10:44:17;;;;;;;5.50;2.20;;;;;;;;;;4970426;28;20570;-67
2023/04/05 10:46:44;;;;;;;2.95;1.70;;;;;;;;;;4972320;28;20699;-67
2023/04/05 10:49:22;;;;;;;3.10;1.92;;;;;;;;;;4974133;28;20039;-67
2023/04/05 10:51:47;;;;;;;4.53;1.95;;;;;;;;;;4973955;28;20038;-67
2023/04/05 10:54:16;;;;;;;4.82;2.03;;;;;;;;;;4972858;28;20042;-68
2023/04/05 10:56:42;;;;;;;4.90;1.77;;;;;;;;;;4973935;28;20027;-68
2023/04/05 10:59:08;;;;;;;2.92;1.52;;;;;;;;;;4974037;28;20501;-68
2023/04/05 11:01:34;;;;;;;4.13;2.00;;;;;;;;;;4972318;28;20039;-67
2023/04/05 11:04:13;;;;;;;4.88;1.92;;;;;;;;;;4973687;28;20035;-67
2023/04/05 11:06:40;;;;;;;5.00;2.10;;;;;;;;;;4973709;28;20736;-68
2023/04/05 11:09:14;;;;;;;3.55;1.73;;;;;;;;;;4973852;28;20030;-67
2023/04/05 11:11:51;;;;;;;4.78;2.10;;;;;;;;;;4973454;28;20109;-67
2023/04/05 11:14:24;;;;;;;3.63;1.90;;;;;;;;;;4973753;28;20052;-67
2023/04/05 11:16:58;;;;;;;6.78;1.85;;;;;;;;;;4973618;28;20037;-67
2023/04/05 11:19:42;;;;;;;4.05;1.85;;;;;;;;;;4973618;28;20526;-68
2023/04/05 11:22:11;;;;;;;3.08;1.60;;;;;;;;;;4973198;28;20030;-67
2023/04/05 11:24:56;;;;;;;2.63;1.45;;;;;;;;;;4973647;28;20031;-67
2023/04/05 11:27:36;;;;;;;5.45;1.70;;;;;;;;;;4973556;28;20035;-68
2023/04/05 11:30:03;;;;;;;4.10;1.52;;;;;;;;;;4973523;28;20041;-68
2023/04/05 11:32:44;;;;;;;3.72;1.70;;;;;;;;;;4972882;28;20034;-67
2023/04/05 11:35:13;;;;;;;;;;;;;;;;;;4974004;28;20045;-67
2023/04/05 11:38:01;;;;;;;4.43;1.45;;;;;;;;;;4972848;28;19914;-68
2023/04/05 11:40:30;;;;;;;5.50;1.58;;;;;;;;;;4973203;28;20045;-67
2023/04/05 11:43:07;;;;;;;4.70;1.70;;;;;;;;;;4972989;28;20053;-67
2023/04/05 11:45:34;;;;;;;4.93;1.50;;;;;;;;;;4973412;28;20034;-67
2023/04/05 11:48:10;;;;;;;5.93;1.92;;;;;;;;;;4973111;28;20030;-67
2023/04/05 11:50:37;;;;;;;4.53;1.70;;;;;;;;;;4973108;28;20027;-67
2023/04/05 11:53:17;;;;;;;5.13;1.60;;;;;;;;;;4972397;28;20118;-67
2023/04/05 11:55:45;;;;;;;5.47;1.58;;;;;;;;;;4972824;28;20034;-67
2023/04/05 11:58:15;;;;;;;3.65;1.50;;;;;;;;;;4971703;28;20507;-67
2023/04/05 12:00:41;;;;;;;4.63;1.52;;;;;;;;;;4972994;28;20027;-67
2023/04/05 12:03:10;;;;;;;7.00;1.50;;;;;;;;;;4972470;28;20034;-67
2023/04/05 12:05:45;;;;;;;5.78;1.90;;;;;;;;;;4972960;28;20435;-68
2023/04/05 12:08:11;;;;;;;6.07;1.60;;;;;;;;;;4972354;28;20537;-67
2023/04/05 12:10:36;;;;;;;2.40;1.30;;;;;;;;;;4972858;28;20031;-68
2023/04/05 12:13:02;;;;;;;2.70;1.58;;;;;;;;;;4972162;28;20027;-66
2023/04/05 12:15:27;;;;;;;5.70;1.52;;;;;;;;;;4972695;28;20558;-69
2023/04/05 12:17:53;;;;;;;4.47;1.40;;;;;;;;;;4972358;28;20018;-68
2023/04/05 12:20:24;;;;;;;1.95;1.20;;;;;;;;;;4972665;28;20077;-68
2023/04/05 12:22:50;;;;;;;;;;;;;;;;;;4972437;28;20053;-68
2023/04/05 12:25:17;;;;;;;3.42;1.17;;;;;;;;;;4972192;28;20373;-69
2023/04/05 12:27:43;;;;;;;2.47;1.40;;;;;;;;;;4972135;28;20027;-67
2023/04/05 12:30:13;;;;;;;2.80;1.35;;;;;;;;;;4972339;28;20070;-67
2023/04/05 12:32:44;;;;;;;3.28;1.33;;;;;;;;;;4971942;28;20585;-69
2023/04/05 12:35:16;;;;;;;2.17;1.23;;;;;;;;;;4972167;28;20022;-68
2023/04/05 12:37:41;;;;;;;3.50;1.40;;;;;;;;;;4972065;28;20035;-69
2023/04/05 12:40:08;;;;;;;4.25;1.35;;;;;;;;;;4972330;28;20025;-68
2023/04/05 12:42:36;;;;;;;2.42;1.20;;;;;;;;;;4971874;28;20033;-68
2023/04/05 12:45:04;;;;;;;3.78;1.40;;;;;;;;;;4971872;28;20038;-68
2023/04/05 12:47:32;;;;;;;2.97;1.25;;;;;;;;;;4971627;28;20110;-68
2023/04/05 12:50:09;;;;;;;4.60;1.60;;;;;;;;;;4971854;28;20478;-68
2023/04/05 12:52:34;;;;;;;2.75;1.20;;;;;;;;;;4971758;28;20035;-68
2023/04/05 12:55:00;;;;;;;3.17;1.25;;;;;;;;;;4971826;28;20029;-69
2023/04/05 12:57:32;;;;;;;2.70;1.40;;;;;;;;;;4971931;28;20082;-67
2023/04/05 12:59:57;;;;;;;2.97;1.25;;;;;;;;;;4972090;28;20034;-67
2023/04/05 13:02:22;;;;;;;4.32;1.40;;;;;;;;;;4971787;28;20449;-67
2023/04/05 13:04:48;;;;;;;5.72;1.40;;;;;;;;;;4971740;28;20043;-67
2023/04/05 13:07:13;;;;;;;2.50;1.20;;;;;;;;;;4971424;28;20059;-69
2023/04/05 13:09:39;;;;;;;2.28;1.40;;;;;;;;;;4973405;28;20030;-68
2023/04/05 13:12:05;;;;;;;2.65;1.25;;;;;;;;;;4971958;28;20026;-68
2023/04/05 13:14:30;;;;;;;1.80;1.10;;;;;;;;;;4975917;28;20027;-66
2023/04/05 13:16:55;;;;;;;3.92;1.35;;;;;;;;;;4975260;28;20056;-67
2023/04/05 13:19:21;;;;;;;2.38;1.13;;;;;;;;;;4974702;28;20390;-67
2023/04/05 13:21:46;;;;;;;3.22;1.10;;;;;;;;;;4971850;28;20027;-66
2023/04/05 13:24:12;;;;;;;4.22;1.00;;;;;;;;;;4971505;28;20042;-69
2023/04/05 13:26:37;;;;;;;3.58;1.00;;;;;;;;;;4971827;28;20031;-68
2023/04/05 13:29:02;;;;;;;2.20;1.08;;;;;;;;;;4971302;28;20025;-67
2023/04/05 13:31:28;;;;;;;4.95;1.50;;;;;;;;;;4971340;28;20629;-67
2023/04/05 13:33:53;;;;;;;2.28;1.10;;;;;;;;;;4971279;28;20027;-66
2023/04/05 13:36:19;;;;;;;3.22;1.23;;;;;;;;;;4970101;28;20031;-67
2023/04/05 13:38:44;;;;;;;3.75;1.50;;;;;;;;;;4971119;28;20593;-67
2023/04/05 13:41:10;;;;;;;2.13;1.00;;;;;;;;;;4971179;28;20118;-67
2023/04/05 13:43:35;;;;;;;2.55;1.30;;;;;;;;;;4970700;28;20713;-67
2023/04/05 13:46:01;;;;;;;3.03;1.20;;;;;;;;;;4971145;28;20217;-68
2023/04/05 13:48:26;;;;;;;2.67;1.10;;;;;;;;;;4971087;28;20027;-67
2023/04/05 13:50:51;;;;;;;1.77;1.00;;;;;;;;;;4971242;28;20030;-68
2023/04/05 13:53:17;;;;;;;2.03;1.10;;;;;;;;;;4970589;28;20041;-68
2023/04/05 13:55:42;;;;;;;4.13;1.30;;;;;;;;;;4970947;28;20030;-67
2023/04/05 13:58:07;;;;;;;2.70;1.20;;;;;;;;;;4970801;28;20083;-67
2023/04/05 14:00:33;;;;;;;1.90;1.02;;;;;;;;;;4970968;28;20537;-67
2023/04/05 14:02:58;;;;;;;2.05;1.20;;;;;;;;;;4970780;28;20271;-67
2023/04/05 14:05:23;;;;;;;2.30;1.00;;;;;;;;;;4970623;28;20105;-67
2023/04/05 14:07:49;;;;;;;2.60;1.30;;;;;;;;;;4970886;28;20019;-68
2023/04/05 14:10:15;;;;;;;2.85;1.10;;;;;;;;;;4971063;28;20114;-68
2023/04/05 14:12:41;;;;;;;2.83;1.20;;;;;;;;;;4970989;28;20038;-68
2023/04/05 14:15:07;;;;;;;3.65;1.40;;;;;;;;;;4970534;28;20026;-68
2023/04/05 14:17:32;;;;;;;2.42;1.08;;;;;;;;;;4970827;28;20035;-69
2023/04/05 14:19:57;;;;;;;4.13;1.02;;;;;;;;;;4970620;28;20479;-67
2023/04/05 14:22:23;;;;;;;4.90;1.00;;;;;;;;;;4973999;28;20027;-67
2023/04/05 14:24:49;;;;;;;2.53;1.10;;;;;;;;;;4974135;28;20031;-66
2023/04/05 14:27:14;;;;;;;1.90;0.98;;;;;;;;;;4974817;28;20113;-67
2023/04/05 14:29:39;;;;;;;4.50;1.10;;;;;;;;;;4974326;28;20391;-67
2023/04/05 14:32:05;;;;;;;1.52;0.90;;;;;;;;;;4974438;28;20609;-66
2023/04/05 14:34:30;;;;;;;3.75;1.20;;;;;;;;;;4974252;28;20151;-67
2023/04/05 14:36:57;;;;;;;3.67;1.20;;;;;;;;;;4974230;28;20387;-67
2023/04/05 14:39:22;;;;;;;1.98;0.90;;;;;;;;;;4974181;28;20090;-68
2023/04/05 14:41:51;;;;;;;1.85;0.90;;;;;;;;;;4974526;28;20086;-68
2023/04/05 14:44:17;;;;;;;2.13;1.00;;;;;;;;;;4973904;28;20494;-68
2023/04/05 14:46:42;;;;;;;3.33;1.10;;;;;;;;;;4974444;28;20038;-68